Aeroporto :
LOGIN :

Iscrizione | Disclaimer

   EN    FR    IT 

 










Sommario :    VFR   VFR Marginale   IFR   IFR Intensivo   IFR Molto Intensivo
Visibilità : 
Base nubi : 
>= 8 km
>= 3000ft
5 / 8 km
1000 / 3000 ft
1500m / 5 km
500 / 1000 ft
800 / 1500m
200 / 500 ft
< 800m
< 200 ft
Simboli :   Temporali  Nebbia  Neve Forte  Precipitazioni Forti  Vento > 20 kt
SIGMETs :   Varie  Temporali  Ghiacco  Turbolenza  Onda orograficha  Ceneri Vulcaniche






- Altitudine del aeroporto : 265 ft


ETSH - Holzdorf AB

ULTIMO METAR :
  • 090720Z 10005KT 5000 BR BKN008 BKN110 M01/M03 Q1005 GRN GRN TEMPO YLO

METARs OBSOLETI :
  • 090620Z 08006KT 6000 BKN008 SCT035 BKN090 M01/M03 Q1004 GRN GRN TEMPO YLO
  • 090609Z 08006KT 6000 BKN008 BKN035 M01/M03 Q1004 GRN GRN TEMPO YLO
  • 090520Z 08006KT 6000 FEW009 SCT026 BKN035 M01/M03 Q1004 WHT WHT BECMG GRN

TAF TAF ETSH
Valido dal 09 a 06 ore il 09 a 15 ore UTC


090523Z 0906/0915 08004KT 6000 NSW BKN008 BKN025
TEMPO 0906/0910 06003KT 3000 -SN BR BKN006 BKN020
TEMPO 0910/0915 VRB03KT 1500 SN BKN005 OVC020



MetMap, La meteo Aeronautica in un colpo d'occhio ! - Copyright ORBIFLY Dicembre 2007 - Disclaimer

ORBIFLY MET'MAP TEAM :

Programmazione e sviluppo : Alexandra Zaïnal
Concezione : Baudouin d'Aumeries
Aiuto per la programmazione : Marc-Olivier Méhu
Supporto tecnico e logistico : Manuel Goepfert
Aiuto per la traduzione : Arnaldo La Scala

Contatto : metmap@orbifly.com




FONTI E CREDITI :

   NOAA